sensor_id;sensor_type;location;lat;lon;timestamp;pressure;altitude;pressure_sealevel;temperature;humidity
54038;BME280;39954;48.844;9.726;2023-12-29T00:00:29;96103.09;;;7.18;100.00
54038;BME280;39954;48.844;9.726;2023-12-29T00:01:36;96101.53;;;7.14;100.00
54038;BME280;39954;48.844;9.726;2023-12-29T00:02:39;96098.84;;;7.17;100.00
54038;BME280;39954;48.844;9.726;2023-12-29T00:03:44;96099.72;;;7.16;100.00
54038;BME280;39954;48.844;9.726;2023-12-29T00:04:46;96098.06;;;7.15;100.00
54038;BME280;39954;48.844;9.726;2023-12-29T00:05:51;96102.31;;;7.16;100.00
54038;BME280;39954;48.844;9.726;2023-12-29T00:06:53;96103.22;;;7.15;100.00
54038;BME280;39954;48.844;9.726;2023-12-29T00:08:04;96096.63;;;7.08;100.00
54038;BME280;39954;48.844;9.726;2023-12-29T00:09:07;96109.41;;;7.11;100.00
54038;BME280;39954;48.844;9.726;2023-12-29T00:10:12;96099.16;;;7.09;100.00
54038;BME280;39954;48.844;9.726;2023-12-29T00:11:17;96104.25;;;7.11;100.00
54038;BME280;39954;48.844;9.726;2023-12-29T00:12:22;96107.69;;;7.11;100.00
54038;BME280;39954;48.844;9.726;2023-12-29T00:13:24;96093.03;;;7.12;100.00
54038;BME280;39954;48.844;9.726;2023-12-29T00:14:29;96098.06;;;7.15;100.00
54038;BME280;39954;48.844;9.726;2023-12-29T00:15:31;96091.00;;;7.18;100.00
54038;BME280;39954;48.844;9.726;2023-12-29T00:16:39;96092.75;;;7.18;100.00
54038;BME280;39954;48.844;9.726;2023-12-29T00:17:41;96090.19;;;7.18;100.00
54038;BME280;39954;48.844;9.726;2023-12-29T00:18:46;96100.44;;;7.20;100.00
54038;BME280;39954;48.844;9.726;2023-12-29T00:19:48;96102.19;;;7.19;100.00
54038;BME280;39954;48.844;9.726;2023-12-29T00:20:55;96101.34;;;7.18;100.00
54038;BME280;39954;48.844;9.726;2023-12-29T00:22:08;96097.78;;;7.21;100.00
54038;BME280;39954;48.844;9.726;2023-12-29T00:23:13;96103.09;;;7.18;100.00
54038;BME280;39954;48.844;9.726;2023-12-29T00:24:15;96089.13;;;7.22;100.00
54038;BME280;39954;48.844;9.726;2023-12-29T00:25:20;96100.25;;;7.24;100.00
54038;BME280;39954;48.844;9.726;2023-12-29T00:26:24;96099.97;;;7.30;100.00
54038;BME280;39954;48.844;9.726;2023-12-29T00:27:26;96092.28;;;7.29;100.00
54038;BME280;39954;48.844;9.726;2023-12-29T00:28:31;96091.19;;;7.34;100.00
54038;BME280;39954;48.844;9.726;2023-12-29T00:29:33;96092.06;;;7.33;100.00
54038;BME280;39954;48.844;9.726;2023-12-29T00:30:38;96093.78;;;7.34;100.00
54038;BME280;39954;48.844;9.726;2023-12-29T00:32:00;96094.81;;;7.30;100.00
54038;BME280;39954;48.844;9.726;2023-12-29T00:33:07;96098.94;;;7.34;100.00
54038;BME280;39954;48.844;9.726;2023-12-29T00:34:09;96095.56;;;7.32;100.00
54038;BME280;39954;48.844;9.726;2023-12-29T00:35:14;96100.63;;;7.35;100.00
54038;BME280;39954;48.844;9.726;2023-12-29T00:36:17;96090.00;;;7.42;100.00
54038;BME280;39954;48.844;9.726;2023-12-29T00:37:23;96084.69;;;7.45;100.00
54038;BME280;39954;48.844;9.726;2023-12-29T00:38:26;96081.22;;;7.46;100.00
54038;BME280;39954;48.844;9.726;2023-12-29T00:39:31;96090.00;;;7.42;100.00
54038;BME280;39954;48.844;9.726;2023-12-29T00:40:41;96096.88;;;7.43;100.00
54038;BME280;39954;48.844;9.726;2023-12-29T00:41:45;96082.03;;;7.46;100.00
54038;BME280;39954;48.844;9.726;2023-12-29T00:42:48;96086.28;;;7.47;100.00
54038;BME280;39954;48.844;9.726;2023-12-29T00:43:52;96080.44;;;7.44;100.00
54038;BME280;39954;48.844;9.726;2023-12-29T00:44:55;96086.56;;;7.41;100.00
54038;BME280;39954;48.844;9.726;2023-12-29T00:46:01;96088.13;;;7.45;100.00
54038;BME280;39954;48.844;9.726;2023-12-29T00:47:06;96088.31;;;7.40;100.00
54038;BME280;39954;48.844;9.726;2023-12-29T00:48:13;96087.50;;;7.40;100.00
54038;BME280;39954;48.844;9.726;2023-12-29T00:49:15;96078.13;;;7.37;100.00
54038;BME280;39954;48.844;9.726;2023-12-29T00:50:18;96074.75;;;7.35;100.00
54038;BME280;39954;48.844;9.726;2023-12-29T00:51:22;96080.50;;;7.42;100.00
54038;BME280;39954;48.844;9.726;2023-12-29T00:52:25;96081.59;;;7.36;100.00
54038;BME280;39954;48.844;9.726;2023-12-29T00:53:29;96065.88;;;7.41;100.00
54038;BME280;39954;48.844;9.726;2023-12-29T00:54:33;96064.41;;;7.35;100.00
54038;BME280;39954;48.844;9.726;2023-12-29T00:55:38;96060.22;;;7.33;100.00
54038;BME280;39954;48.844;9.726;2023-12-29T00:56:40;96057.84;;;7.28;100.00
54038;BME280;39954;48.844;9.726;2023-12-29T00:57:46;96067.34;;;7.28;100.00
54038;BME280;39954;48.844;9.726;2023-12-29T00:58:48;96066.72;;;7.23;100.00
54038;BME280;39954;48.844;9.726;2023-12-29T00:59:53;96070.13;;;7.23;100.00
54038;BME280;39954;48.844;9.726;2023-12-29T01:00:55;96064.06;;;7.24;100.00
54038;BME280;39954;48.844;9.726;2023-12-29T01:02:00;96061.59;;;7.21;100.00
54038;BME280;39954;48.844;9.726;2023-12-29T01:03:06;96064.97;;;7.23;100.00
54038;BME280;39954;48.844;9.726;2023-12-29T01:04:11;96078.78;;;7.22;100.00
54038;BME280;39954;48.844;9.726;2023-12-29T01:05:15;96070.00;;;7.26;100.00
54038;BME280;39954;48.844;9.726;2023-12-29T01:06:20;96075.97;;;7.28;100.00
54038;BME280;39954;48.844;9.726;2023-12-29T01:07:23;96062.09;;;7.29;100.00
54038;BME280;39954;48.844;9.726;2023-12-29T01:08:27;96065.53;;;7.30;100.00
54038;BME280;39954;48.844;9.726;2023-12-29T01:09:30;96072.31;;;7.32;100.00
54038;BME280;39954;48.844;9.726;2023-12-29T01:10:35;96070.66;;;7.31;100.00
54038;BME280;39954;48.844;9.726;2023-12-29T01:11:37;96071.41;;;7.33;100.00
54038;BME280;39954;48.844;9.726;2023-12-29T01:12:39;96073.94;;;7.35;100.00
54038;BME280;39954;48.844;9.726;2023-12-29T01:13:45;96066.03;;;7.38;100.00
54038;BME280;39954;48.844;9.726;2023-12-29T01:14:47;96072.13;;;7.37;100.00
54038;BME280;39954;48.844;9.726;2023-12-29T01:15:52;96070.22;;;7.40;100.00
54038;BME280;39954;48.844;9.726;2023-12-29T01:16:54;96073.09;;;7.34;100.00
54038;BME280;39954;48.844;9.726;2023-12-29T01:18:01;96069.59;;;7.35;100.00
54038;BME280;39954;48.844;9.726;2023-12-29T01:19:06;96073.09;;;7.34;100.00
54038;BME280;39954;48.844;9.726;2023-12-29T01:20:11;96078.00;;;7.40;100.00
54038;BME280;39954;48.844;9.726;2023-12-29T01:21:13;96072.69;;;7.44;100.00
54038;BME280;39954;48.844;9.726;2023-12-29T01:22:18;96070.88;;;7.46;100.00
54038;BME280;39954;48.844;9.726;2023-12-29T01:23:21;96072.69;;;7.44;100.00
54038;BME280;39954;48.844;9.726;2023-12-29T01:24:25;96072.41;;;7.50;100.00
54038;BME280;39954;48.844;9.726;2023-12-29T01:25:40;96074.34;;;7.45;100.00
54038;BME280;39954;48.844;9.726;2023-12-29T01:26:45;96081.34;;;7.43;100.00
54038;BME280;39954;48.844;9.726;2023-12-29T01:27:48;96074.63;;;7.38;100.00
54038;BME280;39954;48.844;9.726;2023-12-29T01:28:52;96077.22;;;7.38;100.00
54038;BME280;39954;48.844;9.726;2023-12-29T01:29:55;96079.66;;;7.42;100.00
54038;BME280;39954;48.844;9.726;2023-12-29T01:31:02;96084.63;;;7.46;100.00
54038;BME280;39954;48.844;9.726;2023-12-29T01:32:05;96078.00;;;7.40;100.00
54038;BME280;39954;48.844;9.726;2023-12-29T01:33:10;96087.28;;;7.45;100.00
54038;BME280;39954;48.844;9.726;2023-12-29T01:34:15;96078.81;;;7.41;100.00
54038;BME280;39954;48.844;9.726;2023-12-29T01:35:20;96073.66;;;7.41;100.00
54038;BME280;39954;48.844;9.726;2023-12-29T01:36:22;96076.94;;;7.45;100.00
54038;BME280;39954;48.844;9.726;2023-12-29T01:37:27;96071.00;;;7.43;100.00
54038;BME280;39954;48.844;9.726;2023-12-29T01:38:29;96076.31;;;7.39;100.00
54038;BME280;39954;48.844;9.726;2023-12-29T01:39:34;96072.25;;;7.34;100.00
54038;BME280;39954;48.844;9.726;2023-12-29T01:40:43;96072.13;;;7.37;100.00
54038;BME280;39954;48.844;9.726;2023-12-29T01:41:48;96062.09;;;7.29;100.00
54038;BME280;39954;48.844;9.726;2023-12-29T01:42:50;96075.03;;;7.29;100.00
54038;BME280;39954;48.844;9.726;2023-12-29T01:44:20;96074.25;;;7.27;100.00
54038;BME280;39954;48.844;9.726;2023-12-29T01:45:24;96067.41;;;7.26;100.00
54038;BME280;39954;48.844;9.726;2023-12-29T01:46:29;96063.50;;;7.17;100.00
54038;BME280;39954;48.844;9.726;2023-12-29T01:47:32;96061.09;;;7.13;100.00
54038;BME280;39954;48.844;9.726;2023-12-29T01:48:37;96070.03;;;7.06;100.00
54038;BME280;39954;48.844;9.726;2023-12-29T01:49:44;96070.28;;;7.00;100.00
54038;BME280;39954;48.844;9.726;2023-12-29T01:50:47;96066.03;;;6.99;100.00
54038;BME280;39954;48.844;9.726;2023-12-29T01:51:55;96059.94;;;7.00;100.00
54038;BME280;39954;48.844;9.726;2023-12-29T01:52:59;96067.81;;;6.97;100.00
54038;BME280;39954;48.844;9.726;2023-12-29T01:54:05;96063.97;;;6.86;100.00
54038;BME280;39954;48.844;9.726;2023-12-29T01:55:10;96065.78;;;6.84;100.00
54038;BME280;39954;48.844;9.726;2023-12-29T01:56:17;96071.25;;;6.77;100.00
54038;BME280;39954;48.844;9.726;2023-12-29T01:57:19;96068.75;;;6.75;100.00
54038;BME280;39954;48.844;9.726;2023-12-29T01:58:24;96072.34;;;6.71;100.00
54038;BME280;39954;48.844;9.726;2023-12-29T01:59:29;96065.38;;;6.73;100.00
54038;BME280;39954;48.844;9.726;2023-12-29T02:00:35;96070.28;;;6.79;100.00
54038;BME280;39954;48.844;9.726;2023-12-29T02:01:38;96066.66;;;6.83;100.00
54038;BME280;39954;48.844;9.726;2023-12-29T02:02:43;96063.84;;;6.89;100.00
54038;BME280;39954;48.844;9.726;2023-12-29T02:03:46;96048.34;;;6.89;100.00
54038;BME280;39954;48.844;9.726;2023-12-29T02:04:54;96056.94;;;6.90;100.00
54038;BME280;39954;48.844;9.726;2023-12-29T02:05:57;96053.44;;;6.91;100.00
54038;BME280;39954;48.844;9.726;2023-12-29T02:07:03;96050.06;;;6.89;100.00
54038;BME280;39954;48.844;9.726;2023-12-29T02:08:07;96050.94;;;6.89;100.00
54038;BME280;39954;48.844;9.726;2023-12-29T02:09:12;96050.16;;;6.87;100.00
54038;BME280;39954;48.844;9.726;2023-12-29T02:10:14;96047.28;;;6.93;100.00
54038;BME280;39954;48.844;9.726;2023-12-29T02:11:19;96052.41;;;6.95;100.00
54038;BME280;39954;48.844;9.726;2023-12-29T02:12:22;96053.44;;;6.91;100.00
54038;BME280;39954;48.844;9.726;2023-12-29T02:13:26;96062.22;;;6.87;100.00
54038;BME280;39954;48.844;9.726;2023-12-29T02:14:31;96058.41;;;6.95;100.00
54038;BME280;39954;48.844;9.726;2023-12-29T02:15:36;96053.88;;;7.01;100.00
54038;BME280;39954;48.844;9.726;2023-12-29T02:16:42;96059.94;;;7.00;100.00
54038;BME280;39954;48.844;9.726;2023-12-29T02:17:55;96057.22;;;7.03;100.00
54038;BME280;39954;48.844;9.726;2023-12-29T02:19:01;96058.00;;;7.05;100.00
54038;BME280;39954;48.844;9.726;2023-12-29T02:20:12;96061.50;;;7.04;100.00
54038;BME280;39954;48.844;9.726;2023-12-29T02:21:14;96062.28;;;7.06;100.00
54038;BME280;39954;48.844;9.726;2023-12-29T02:22:19;96052.66;;;7.09;100.00
54038;BME280;39954;48.844;9.726;2023-12-29T02:23:21;96056.13;;;7.08;100.00
54038;BME280;39954;48.844;9.726;2023-12-29T02:24:26;96053.47;;;7.10;100.00
54038;BME280;39954;48.844;9.726;2023-12-29T02:25:31;96055.28;;;7.08;100.00
54038;BME280;39954;48.844;9.726;2023-12-29T02:26:37;96055.16;;;7.11;100.00
54038;BME280;39954;48.844;9.726;2023-12-29T02:27:45;96067.19;;;7.12;100.00
54038;BME280;39954;48.844;9.726;2023-12-29T02:28:55;96065.34;;;7.14;100.00
54038;BME280;39954;48.844;9.726;2023-12-29T02:30:09;96055.94;;;7.13;100.00
54038;BME280;39954;48.844;9.726;2023-12-29T02:31:16;96055.00;;;7.14;100.00
54038;BME280;39954;48.844;9.726;2023-12-29T02:32:21;96044.13;;;7.07;100.00
54038;BME280;39954;48.844;9.726;2023-12-29T02:33:28;96057.13;;;7.06;100.00
54038;BME280;39954;48.844;9.726;2023-12-29T02:34:32;96050.13;;;7.08;100.00
54038;BME280;39954;48.844;9.726;2023-12-29T02:35:39;96053.53;;;7.08;100.00
54038;BME280;39954;48.844;9.726;2023-12-29T02:36:44;96052.66;;;7.09;100.00
54038;BME280;39954;48.844;9.726;2023-12-29T02:37:49;96047.41;;;7.11;100.00
54038;BME280;39954;48.844;9.726;2023-12-29T02:38:52;96049.97;;;7.11;100.00
54038;BME280;39954;48.844;9.726;2023-12-29T02:39:58;96044.13;;;7.07;100.00
54038;BME280;39954;48.844;9.726;2023-12-29T02:41:03;96041.53;;;7.07;100.00
54038;BME280;39954;48.844;9.726;2023-12-29T02:42:08;96041.41;;;7.10;100.00
54038;BME280;39954;48.844;9.726;2023-12-29T02:43:13;96036.19;;;7.12;100.00
54038;BME280;39954;48.844;9.726;2023-12-29T02:44:18;96044.81;;;7.11;100.00
54038;BME280;39954;48.844;9.726;2023-12-29T02:45:20;96051.69;;;7.12;100.00
54038;BME280;39954;48.844;9.726;2023-12-29T02:46:25;96045.78;;;7.08;100.00
54038;BME280;39954;48.844;9.726;2023-12-29T02:47:28;96038.75;;;7.12;100.00
54038;BME280;39954;48.844;9.726;2023-12-29T02:48:30;96032.53;;;7.16;100.00
54038;BME280;39954;48.844;9.726;2023-12-29T02:49:35;96041.06;;;7.18;100.00
54038;BME280;39954;48.844;9.726;2023-12-29T02:50:37;96041.84;;;7.20;100.00
54038;BME280;39954;48.844;9.726;2023-12-29T02:51:42;96032.41;;;7.19;100.00
54038;BME280;39954;48.844;9.726;2023-12-29T02:52:47;96036.88;;;7.15;100.00
54038;BME280;39954;48.844;9.726;2023-12-29T02:53:52;96035.34;;;7.11;100.00
54038;BME280;39954;48.844;9.726;2023-12-29T02:54:54;96027.63;;;7.10;100.00
54038;BME280;39954;48.844;9.726;2023-12-29T02:55:56;96025.06;;;7.10;100.00
54038;BME280;39954;48.844;9.726;2023-12-29T02:57:04;96037.16;;;7.09;100.00
54038;BME280;39954;48.844;9.726;2023-12-29T02:58:06;96032.81;;;7.10;100.00
54038;BME280;39954;48.844;9.726;2023-12-29T02:59:11;96030.03;;;7.14;100.00
54038;BME280;39954;48.844;9.726;2023-12-29T03:00:14;96031.97;;;7.09;100.00
54038;BME280;39954;48.844;9.726;2023-12-29T03:01:16;96034.47;;;7.11;100.00
54038;BME280;39954;48.844;9.726;2023-12-29T03:02:21;96029.41;;;7.09;100.00
54038;BME280;39954;48.844;9.726;2023-12-29T03:03:24;96029.31;;;7.11;100.00
54038;BME280;39954;48.844;9.726;2023-12-29T03:04:29;96026.88;;;7.08;100.00
54038;BME280;39954;48.844;9.726;2023-12-29T03:05:31;96021.63;;;7.09;100.00
54038;BME280;39954;48.844;9.726;2023-12-29T03:06:36;96020.94;;;7.06;100.00
54038;BME280;39954;48.844;9.726;2023-12-29T03:07:38;96026.13;;;7.06;100.00
54038;BME280;39954;48.844;9.726;2023-12-29T03:08:43;96017.44;;;7.07;100.00
54038;BME280;39954;48.844;9.726;2023-12-29T03:09:46;96010.47;;;7.09;100.00
54038;BME280;39954;48.844;9.726;2023-12-29T03:10:50;96022.34;;;7.13;100.00
54038;BME280;39954;48.844;9.726;2023-12-29T03:11:53;96020.66;;;7.12;100.00
54038;BME280;39954;48.844;9.726;2023-12-29T03:13:00;96025.84;;;7.12;100.00
54038;BME280;39954;48.844;9.726;2023-12-29T03:14:04;96029.41;;;7.09;100.00
54038;BME280;39954;48.844;9.726;2023-12-29T03:15:09;96036.44;;;7.06;100.00
54038;BME280;39954;48.844;9.726;2023-12-29T03:16:11;96028.63;;;7.07;100.00
54038;BME280;39954;48.844;9.726;2023-12-29T03:17:16;96024.28;;;7.08;100.00
54038;BME280;39954;48.844;9.726;2023-12-29T03:18:21;96024.22;;;7.09;100.00
54038;BME280;39954;48.844;9.726;2023-12-29T03:19:26;96024.91;;;7.13;100.00
54038;BME280;39954;48.844;9.726;2023-12-29T03:20:29;96027.50;;;7.13;100.00
54038;BME280;39954;48.844;9.726;2023-12-29T03:21:34;96025.06;;;7.10;100.00
54038;BME280;39954;48.844;9.726;2023-12-29T03:22:37;96022.41;;;7.11;100.00
54038;BME280;39954;48.844;9.726;2023-12-29T03:23:42;96023.13;;;7.15;100.00
54038;BME280;39954;48.844;9.726;2023-12-29T03:24:44;96010.34;;;7.12;100.00
54038;BME280;39954;48.844;9.726;2023-12-29T03:25:47;96009.56;;;7.10;100.00
54038;BME280;39954;48.844;9.726;2023-12-29T03:26:51;96005.44;;;7.06;100.00
54038;BME280;39954;48.844;9.726;2023-12-29T03:27:54;96018.28;;;7.07;100.00
54038;BME280;39954;48.844;9.726;2023-12-29T03:29:01;96011.44;;;7.06;100.00
54038;BME280;39954;48.844;9.726;2023-12-29T03:30:05;96015.78;;;7.06;100.00
54038;BME280;39954;48.844;9.726;2023-12-29T03:31:10;96030.50;;;7.04;100.00
54038;BME280;39954;48.844;9.726;2023-12-29T03:32:12;96022.75;;;7.04;100.00
54038;BME280;39954;48.844;9.726;2023-12-29T03:33:17;96025.19;;;7.07;100.00
54038;BME280;39954;48.844;9.726;2023-12-29T03:34:20;96020.81;;;7.09;100.00
54038;BME280;39954;48.844;9.726;2023-12-29T03:35:24;96024.13;;;7.11;100.00
54038;BME280;39954;48.844;9.726;2023-12-29T03:36:29;96018.22;;;7.09;100.00
54038;BME280;39954;48.844;9.726;2023-12-29T03:37:34;96022.63;;;7.07;100.00
54038;BME280;39954;48.844;9.726;2023-12-29T03:38:36;96014.66;;;7.11;100.00
54038;BME280;39954;48.844;9.726;2023-12-29T03:39:41;96019.88;;;7.10;100.00
54038;BME280;39954;48.844;9.726;2023-12-29T03:40:43;96014.72;;;7.10;100.00
54038;BME280;39954;48.844;9.726;2023-12-29T03:41:48;96004.44;;;7.08;100.00
54038;BME280;39954;48.844;9.726;2023-12-29T03:42:50;96000.31;;;7.04;100.00
54038;BME280;39954;48.844;9.726;2023-12-29T03:43:55;95997.75;;;7.04;100.00
54038;BME280;39954;48.844;9.726;2023-12-29T03:45:00;95997.94;;;7.00;100.00
54038;BME280;39954;48.844;9.726;2023-12-29T03:46:15;96011.78;;;6.99;100.00
54038;BME280;39954;48.844;9.726;2023-12-29T03:47:17;96005.78;;;6.98;100.00
54038;BME280;39954;48.844;9.726;2023-12-29T03:48:22;96002.47;;;6.94;100.00
54038;BME280;39954;48.844;9.726;2023-12-29T03:49:25;96016.03;;;7.00;100.00
54038;BME280;39954;48.844;9.726;2023-12-29T03:50:30;96011.78;;;6.99;100.00
54038;BME280;39954;48.844;9.726;2023-12-29T03:51:32;96021.19;;;7.00;100.00
54038;BME280;39954;48.844;9.726;2023-12-29T03:52:37;96002.97;;;7.03;100.00
54038;BME280;39954;48.844;9.726;2023-12-29T03:53:39;96002.34;;;6.98;100.00
54038;BME280;39954;48.844;9.726;2023-12-29T03:54:44;95999.81;;;6.96;100.00
54038;BME280;39954;48.844;9.726;2023-12-29T03:55:46;96011.00;;;6.97;100.00
54038;BME280;39954;48.844;9.726;2023-12-29T03:56:52;96007.44;;;6.99;100.00
54038;BME280;39954;48.844;9.726;2023-12-29T03:57:54;96012.56;;;7.01;100.00
54038;BME280;39954;48.844;9.726;2023-12-29T03:59:00;96012.41;;;7.04;100.00
54038;BME280;39954;48.844;9.726;2023-12-29T04:00:06;96005.69;;;7.00;100.00
54038;BME280;39954;48.844;9.726;2023-12-29T04:01:12;96009.13;;;7.00;100.00
54038;BME280;39954;48.844;9.726;2023-12-29T04:02:14;96005.69;;;7.00;100.00
54038;BME280;39954;48.844;9.726;2023-12-29T04:03:21;96008.22;;;7.01;100.00
54038;BME280;39954;48.844;9.726;2023-12-29T04:04:23;96000.47;;;7.01;100.00
54038;BME280;39954;48.844;9.726;2023-12-29T04:05:28;96003.09;;;7.00;100.00
54038;BME280;39954;48.844;9.726;2023-12-29T04:06:31;95993.81;;;6.95;100.00
54038;BME280;39954;48.844;9.726;2023-12-29T04:07:36;96003.25;;;6.97;100.00
54038;BME280;39954;48.844;9.726;2023-12-29T04:08:38;96000.78;;;6.93;100.00
54038;BME280;39954;48.844;9.726;2023-12-29T04:09:43;96001.63;;;6.94;100.00
54038;BME280;39954;48.844;9.726;2023-12-29T04:10:45;95993.22;;;6.89;100.00
54038;BME280;39954;48.844;9.726;2023-12-29T04:11:50;95994.09;;;6.89;100.00
54038;BME280;39954;48.844;9.726;2023-12-29T04:12:52;96000.00;;;6.91;100.00
54038;BME280;39954;48.844;9.726;2023-12-29T04:13:57;95994.94;;;6.90;100.00
54038;BME280;39954;48.844;9.726;2023-12-29T04:14:59;96002.59;;;6.91;100.00
54038;BME280;39954;48.844;9.726;2023-12-29T04:16:07;95993.97;;;6.92;100.00
54038;BME280;39954;48.844;9.726;2023-12-29T04:17:10;95992.03;;;6.98;100.00
54038;BME280;39954;48.844;9.726;2023-12-29T04:18:17;95997.28;;;6.94;100.00
54038;BME280;39954;48.844;9.726;2023-12-29T04:19:20;95998.16;;;6.95;100.00
54038;BME280;39954;48.844;9.726;2023-12-29T04:20:25;95990.41;;;6.95;100.00
54038;BME280;39954;48.844;9.726;2023-12-29T04:21:27;95993.00;;;6.95;100.00
54038;BME280;39954;48.844;9.726;2023-12-29T04:22:32;95998.16;;;6.95;100.00
54038;BME280;39954;48.844;9.726;2023-12-29T04:23:35;95992.06;;;6.96;100.00
54038;BME280;39954;48.844;9.726;2023-12-29T04:24:40;95994.59;;;6.98;100.00
54038;BME280;39954;48.844;9.726;2023-12-29T04:25:43;95993.22;;;6.89;100.00
54038;BME280;39954;48.844;9.726;2023-12-29T04:26:48;96000.97;;;6.89;100.00
54038;BME280;39954;48.844;9.726;2023-12-29T04:27:50;96002.72;;;6.88;100.00
54038;BME280;39954;48.844;9.726;2023-12-29T04:28:55;95993.13;;;6.92;100.00
54038;BME280;39954;48.844;9.726;2023-12-29T04:29:57;96002.88;;;6.85;100.00
54038;BME280;39954;48.844;9.726;2023-12-29T04:31:02;96010.44;;;6.90;100.00
54038;BME280;39954;48.844;9.726;2023-12-29T04:32:07;96001.91;;;6.88;100.00
54038;BME280;39954;48.844;9.726;2023-12-29T04:33:12;96008.16;;;6.82;100.00
54038;BME280;39954;48.844;9.726;2023-12-29T04:34:14;96004.81;;;6.80;100.00
54038;BME280;39954;48.844;9.726;2023-12-29T04:35:19;96000.59;;;6.78;100.00
54038;BME280;39954;48.844;9.726;2023-12-29T04:36:21;96000.69;;;6.76;100.00
54038;BME280;39954;48.844;9.726;2023-12-29T04:37:26;96007.66;;;6.74;100.00
54038;BME280;39954;48.844;9.726;2023-12-29T04:38:28;95985.25;;;6.75;100.00
54038;BME280;39954;48.844;9.726;2023-12-29T04:39:33;96003.28;;;6.76;100.00
54038;BME280;39954;48.844;9.726;2023-12-29T04:40:37;96001.25;;;6.83;100.00
54038;BME280;39954;48.844;9.726;2023-12-29T04:41:42;95997.06;;;6.80;100.00
54038;BME280;39954;48.844;9.726;2023-12-29T04:42:45;95999.63;;;6.80;100.00
54038;BME280;39954;48.844;9.726;2023-12-29T04:43:50;96002.16;;;6.82;100.00
54038;BME280;39954;48.844;9.726;2023-12-29T04:44:52;96012.50;;;6.82;100.00
54038;BME280;39954;48.844;9.726;2023-12-29T04:45:57;96006.63;;;6.78;100.00
54038;BME280;39954;48.844;9.726;2023-12-29T04:46:59;96006.78;;;6.75;100.00
54038;BME280;39954;48.844;9.726;2023-12-29T04:48:09;96004.06;;;6.78;100.00
54038;BME280;39954;48.844;9.726;2023-12-29T04:49:12;95996.31;;;6.78;100.00
54038;BME280;39954;48.844;9.726;2023-12-29T04:50:17;95999.78;;;6.77;100.00
54038;BME280;39954;48.844;9.726;2023-12-29T04:51:19;95997.13;;;6.79;100.00
54038;BME280;39954;48.844;9.726;2023-12-29T04:52:24;96007.25;;;6.83;100.00
54038;BME280;39954;48.844;9.726;2023-12-29T04:53:26;96006.50;;;6.81;100.00
54038;BME280;39954;48.844;9.726;2023-12-29T04:54:31;96020.31;;;6.80;100.00
54038;BME280;39954;48.844;9.726;2023-12-29T04:55:33;96006.50;;;6.81;100.00
54038;BME280;39954;48.844;9.726;2023-12-29T04:56:38;96013.34;;;6.82;100.00
54038;BME280;39954;48.844;9.726;2023-12-29T04:57:40;96010.63;;;6.85;100.00
54038;BME280;39954;48.844;9.726;2023-12-29T04:58:45;96008.72;;;6.89;100.00
54038;BME280;39954;48.844;9.726;2023-12-29T04:59:47;96008.94;;;6.84;100.00
54038;BME280;39954;48.844;9.726;2023-12-29T05:00:52;96008.16;;;6.82;100.00
54038;BME280;39954;48.844;9.726;2023-12-29T05:01:54;96008.31;;;6.79;100.00
54038;BME280;39954;48.844;9.726;2023-12-29T05:02:57;96006.50;;;6.81;100.00
54038;BME280;39954;48.844;9.726;2023-12-29T05:04:04;96008.25;;;6.81;100.00
54038;BME280;39954;48.844;9.726;2023-12-29T05:05:07;96009.41;;;6.73;100.00
54038;BME280;39954;48.844;9.726;2023-12-29T05:06:14;96003.28;;;6.76;100.00
54038;BME280;39954;48.844;9.726;2023-12-29T05:07:16;96006.63;;;6.78;100.00
54038;BME280;39954;48.844;9.726;2023-12-29T05:08:23;96005.91;;;6.75;100.00
54038;BME280;39954;48.844;9.726;2023-12-29T05:09:25;96001.72;;;6.72;100.00
54038;BME280;39954;48.844;9.726;2023-12-29T05:10:30;96002.75;;;6.68;100.00
54038;BME280;39954;48.844;9.726;2023-12-29T05:11:32;96004.66;;;6.64;100.00
54038;BME280;39954;48.844;9.726;2023-12-29T05:12:37;96006.41;;;6.64;100.00
54038;BME280;39954;48.844;9.726;2023-12-29T05:13:39;96009.06;;;6.61;100.00
54038;BME280;39954;48.844;9.726;2023-12-29T05:14:41;96011.75;;;6.59;100.00
54038;BME280;39954;48.844;9.726;2023-12-29T05:15:46;96007.22;;;6.64;100.00
54038;BME280;39954;48.844;9.726;2023-12-29T05:16:48;95995.00;;;6.68;100.00
54038;BME280;39954;48.844;9.726;2023-12-29T05:17:51;95994.09;;;6.69;100.00
54038;BME280;39954;48.844;9.726;2023-12-29T05:18:56;95999.13;;;6.72;100.00
54038;BME280;39954;48.844;9.726;2023-12-29T05:20:01;96003.53;;;6.70;100.00
54038;BME280;39954;48.844;9.726;2023-12-29T05:21:14;96002.72;;;6.69;100.00
54038;BME280;39954;48.844;9.726;2023-12-29T05:22:16;96003.53;;;6.70;100.00
54038;BME280;39954;48.844;9.726;2023-12-29T05:23:21;96001.84;;;6.69;100.00
54038;BME280;39954;48.844;9.726;2023-12-29T05:24:23;96001.09;;;6.67;100.00
54038;BME280;39954;48.844;9.726;2023-12-29T05:25:28;96006.19;;;6.68;100.00
54038;BME280;39954;48.844;9.726;2023-12-29T05:26:30;95996.91;;;6.64;100.00
54038;BME280;39954;48.844;9.726;2023-12-29T05:27:35;96009.34;;;6.75;100.00
54038;BME280;39954;48.844;9.726;2023-12-29T05:28:39;95988.88;;;6.70;100.00
54038;BME280;39954;48.844;9.726;2023-12-29T05:29:44;95990.03;;;6.63;100.00
54038;BME280;39954;48.844;9.726;2023-12-29T05:30:46;95991.78;;;6.63;100.00
54038;BME280;39954;48.844;9.726;2023-12-29T05:31:51;96001.41;;;6.59;100.00
54038;BME280;39954;48.844;9.726;2023-12-29T05:32:53;95997.03;;;6.61;100.00
54038;BME280;39954;48.844;9.726;2023-12-29T05:33:58;96000.38;;;6.63;100.00
54038;BME280;39954;48.844;9.726;2023-12-29T05:35:04;95984.94;;;6.62;100.00
54038;BME280;39954;48.844;9.726;2023-12-29T05:36:10;96007.28;;;6.63;100.00
54038;BME280;39954;48.844;9.726;2023-12-29T05:37:12;96003.91;;;6.61;100.00
54038;BME280;39954;48.844;9.726;2023-12-29T05:38:17;96010.78;;;6.62;100.00
54038;BME280;39954;48.844;9.726;2023-12-29T05:39:19;96004.69;;;6.63;100.00
54038;BME280;39954;48.844;9.726;2023-12-29T05:40:24;95994.38;;;6.63;100.00
54038;BME280;39954;48.844;9.726;2023-12-29T05:41:26;95991.00;;;6.61;100.00